Wolbach, Nebraska
Current Conditions -  °F | °C
As of 6:55 PM on Saturday 25 Oct 2014 (Local Time) from KBVN Reporting Station
Clear Clear  
Wind Chill: 60°   Ceiling: Unl
Heat Index: 60°   Visibility: 10mi
Dew Point: 38°   Wind: 7mph
Humidity: 45%   Direction: 80°E
Pressure: 30.04"   Gusts: NA
Location:  41.4°N, 98.39°W
Report Text: KBVN 252355Z AUTO 08006KT 10SM CLR 16/04 A3004 RMK AO2 T01560036 10217 20156
Loading
Personal Weather Stations






























Interactive Weather Map
Tropical Storm Tracking
New forecast layout! Learn more

10-Day Weather Forecast

Advertisements
Track Severe Weather on mobile